sensor_id;sensor_type;location;lat;lon;timestamp;temperature;humidity
26579;DHT22;14227;47.674;19.320;2022-07-23T00:01:31;31.50;26.70
26579;DHT22;14227;47.674;19.320;2022-07-23T00:03:57;31.50;26.60
26579;DHT22;14227;47.674;19.320;2022-07-23T00:06:23;31.50;26.70
26579;DHT22;14227;47.674;19.320;2022-07-23T00:08:50;31.40;26.60
26579;DHT22;14227;47.674;19.320;2022-07-23T00:11:15;31.40;26.70
26579;DHT22;14227;47.674;19.320;2022-07-23T00:13:41;31.40;26.70
26579;DHT22;14227;47.674;19.320;2022-07-23T00:16:07;31.30;26.50
26579;DHT22;14227;47.674;19.320;2022-07-23T00:18:33;31.30;26.50
26579;DHT22;14227;47.674;19.320;2022-07-23T00:20:58;31.30;26.40
26579;DHT22;14227;47.674;19.320;2022-07-23T00:23:24;31.20;26.50
26579;DHT22;14227;47.674;19.320;2022-07-23T00:25:51;31.20;26.90
26579;DHT22;14227;47.674;19.320;2022-07-23T00:28:17;31.20;27.10
26579;DHT22;14227;47.674;19.320;2022-07-23T00:30:44;31.10;27.20
26579;DHT22;14227;47.674;19.320;2022-07-23T00:33:10;31.10;27.00
26579;DHT22;14227;47.674;19.320;2022-07-23T00:35:38;31.10;26.90
26579;DHT22;14227;47.674;19.320;2022-07-23T00:38:06;31.00;26.90
26579;DHT22;14227;47.674;19.320;2022-07-23T00:40:33;31.00;27.00
26579;DHT22;14227;47.674;19.320;2022-07-23T00:42:59;31.00;27.60
26579;DHT22;14227;47.674;19.320;2022-07-23T00:45:25;30.90;27.10
26579;DHT22;14227;47.674;19.320;2022-07-23T00:47:51;30.90;27.10
26579;DHT22;14227;47.674;19.320;2022-07-23T00:50:16;30.90;27.10
26579;DHT22;14227;47.674;19.320;2022-07-23T00:52:43;30.80;27.10
26579;DHT22;14227;47.674;19.320;2022-07-23T00:55:09;30.80;27.20
26579;DHT22;14227;47.674;19.320;2022-07-23T00:57:36;30.70;27.10
26579;DHT22;14227;47.674;19.320;2022-07-23T01:00:02;30.70;27.20
26579;DHT22;14227;47.674;19.320;2022-07-23T01:02:28;30.70;27.20
26579;DHT22;14227;47.674;19.320;2022-07-23T01:04:54;30.70;27.30
26579;DHT22;14227;47.674;19.320;2022-07-23T01:07:20;30.70;27.40
26579;DHT22;14227;47.674;19.320;2022-07-23T01:09:46;30.60;27.50
26579;DHT22;14227;47.674;19.320;2022-07-23T01:12:12;30.60;27.50
26579;DHT22;14227;47.674;19.320;2022-07-23T01:14:37;30.60;27.80
26579;DHT22;14227;47.674;19.320;2022-07-23T01:17:03;30.60;27.40
26579;DHT22;14227;47.674;19.320;2022-07-23T01:19:30;30.60;28.30
26579;DHT22;14227;47.674;19.320;2022-07-23T01:21:57;30.50;27.80
26579;DHT22;14227;47.674;19.320;2022-07-23T01:24:23;30.50;27.90
26579;DHT22;14227;47.674;19.320;2022-07-23T01:26:50;30.40;27.80
26579;DHT22;14227;47.674;19.320;2022-07-23T01:29:16;30.40;27.80
26579;DHT22;14227;47.674;19.320;2022-07-23T01:31:43;30.40;27.80
26579;DHT22;14227;47.674;19.320;2022-07-23T01:34:09;30.30;27.80
26579;DHT22;14227;47.674;19.320;2022-07-23T01:36:35;30.30;28.00
26579;DHT22;14227;47.674;19.320;2022-07-23T01:39:03;30.20;27.80
26579;DHT22;14227;47.674;19.320;2022-07-23T01:41:29;30.20;28.00
26579;DHT22;14227;47.674;19.320;2022-07-23T01:43:54;30.10;28.00
26579;DHT22;14227;47.674;19.320;2022-07-23T01:46:20;30.10;27.90
26579;DHT22;14227;47.674;19.320;2022-07-23T01:48:46;30.10;28.00
26579;DHT22;14227;47.674;19.320;2022-07-23T01:51:11;30.00;27.70
26579;DHT22;14227;47.674;19.320;2022-07-23T01:53:37;30.10;28.00
26579;DHT22;14227;47.674;19.320;2022-07-23T01:56:03;30.00;27.90
26579;DHT22;14227;47.674;19.320;2022-07-23T01:58:29;30.00;27.70
26579;DHT22;14227;47.674;19.320;2022-07-23T02:00:55;30.00;27.90
26579;DHT22;14227;47.674;19.320;2022-07-23T02:03:21;29.90;27.80
26579;DHT22;14227;47.674;19.320;2022-07-23T02:05:47;30.00;28.00
26579;DHT22;14227;47.674;19.320;2022-07-23T02:08:13;29.90;27.90
26579;DHT22;14227;47.674;19.320;2022-07-23T02:10:39;29.90;28.10
26579;DHT22;14227;47.674;19.320;2022-07-23T02:13:04;29.80;28.00
26579;DHT22;14227;47.674;19.320;2022-07-23T02:15:30;29.80;28.10
26579;DHT22;14227;47.674;19.320;2022-07-23T02:17:56;29.70;28.10
26579;DHT22;14227;47.674;19.320;2022-07-23T02:20:22;29.70;28.30
26579;DHT22;14227;47.674;19.320;2022-07-23T02:22:54;29.60;28.20
26579;DHT22;14227;47.674;19.320;2022-07-23T02:25:20;29.70;28.20
26579;DHT22;14227;47.674;19.320;2022-07-23T02:27:45;29.60;28.20
26579;DHT22;14227;47.674;19.320;2022-07-23T02:30:11;29.60;28.20
26579;DHT22;14227;47.674;19.320;2022-07-23T02:32:37;29.60;28.40
26579;DHT22;14227;47.674;19.320;2022-07-23T02:35:05;29.60;28.50
26579;DHT22;14227;47.674;19.320;2022-07-23T02:37:31;29.50;28.40
26579;DHT22;14227;47.674;19.320;2022-07-23T02:39:57;29.50;28.40
26579;DHT22;14227;47.674;19.320;2022-07-23T02:42:23;29.40;28.30
26579;DHT22;14227;47.674;19.320;2022-07-23T02:44:50;29.40;28.50
26579;DHT22;14227;47.674;19.320;2022-07-23T02:47:16;29.30;28.80
26579;DHT22;14227;47.674;19.320;2022-07-23T02:49:41;29.30;28.90
26579;DHT22;14227;47.674;19.320;2022-07-23T02:52:07;29.20;28.70
26579;DHT22;14227;47.674;19.320;2022-07-23T02:54:36;29.20;28.40
26579;DHT22;14227;47.674;19.320;2022-07-23T02:57:01;29.20;28.40
26579;DHT22;14227;47.674;19.320;2022-07-23T02:59:27;29.20;28.60
26579;DHT22;14227;47.674;19.320;2022-07-23T03:01:52;29.10;28.60
26579;DHT22;14227;47.674;19.320;2022-07-23T03:04:18;29.10;28.70
26579;DHT22;14227;47.674;19.320;2022-07-23T03:06:44;29.10;28.60
26579;DHT22;14227;47.674;19.320;2022-07-23T03:09:09;29.10;28.70
26579;DHT22;14227;47.674;19.320;2022-07-23T03:11:35;29.00;28.90
26579;DHT22;14227;47.674;19.320;2022-07-23T03:14:01;29.00;28.60
26579;DHT22;14227;47.674;19.320;2022-07-23T03:16:27;29.00;28.70
26579;DHT22;14227;47.674;19.320;2022-07-23T03:18:53;29.00;28.90
26579;DHT22;14227;47.674;19.320;2022-07-23T03:21:18;28.90;29.10
26579;DHT22;14227;47.674;19.320;2022-07-23T03:23:44;28.90;29.00
26579;DHT22;14227;47.674;19.320;2022-07-23T03:26:10;28.90;29.10
26579;DHT22;14227;47.674;19.320;2022-07-23T03:28:35;28.90;29.10
26579;DHT22;14227;47.674;19.320;2022-07-23T03:31:01;28.80;29.00
26579;DHT22;14227;47.674;19.320;2022-07-23T03:33:27;28.80;29.00
26579;DHT22;14227;47.674;19.320;2022-07-23T03:35:52;28.80;29.00
26579;DHT22;14227;47.674;19.320;2022-07-23T03:38:18;28.80;29.00
26579;DHT22;14227;47.674;19.320;2022-07-23T03:40:44;28.80;29.00
26579;DHT22;14227;47.674;19.320;2022-07-23T03:43:09;28.80;29.00
26579;DHT22;14227;47.674;19.320;2022-07-23T03:45:35;28.80;29.60
26579;DHT22;14227;47.674;19.320;2022-07-23T03:48:01;28.70;29.40
26579;DHT22;14227;47.674;19.320;2022-07-23T03:50:26;28.70;29.30
26579;DHT22;14227;47.674;19.320;2022-07-23T03:52:52;28.70;29.00
26579;DHT22;14227;47.674;19.320;2022-07-23T03:55:19;28.70;29.40
26579;DHT22;14227;47.674;19.320;2022-07-23T03:57:45;28.60;29.70
26579;DHT22;14227;47.674;19.320;2022-07-23T04:00:11;28.60;29.50
26579;DHT22;14227;47.674;19.320;2022-07-23T04:02:38;28.60;29.50
26579;DHT22;14227;47.674;19.320;2022-07-23T04:05:05;28.60;29.60
26579;DHT22;14227;47.674;19.320;2022-07-23T04:07:31;28.60;29.80
26579;DHT22;14227;47.674;19.320;2022-07-23T04:09:56;28.60;29.70
26579;DHT22;14227;47.674;19.320;2022-07-23T04:12:23;28.50;30.00
26579;DHT22;14227;47.674;19.320;2022-07-23T04:14:49;28.50;30.00
26579;DHT22;14227;47.674;19.320;2022-07-23T04:17:14;28.50;29.90
26579;DHT22;14227;47.674;19.320;2022-07-23T04:19:40;28.50;30.00
26579;DHT22;14227;47.674;19.320;2022-07-23T04:22:09;28.50;30.00
26579;DHT22;14227;47.674;19.320;2022-07-23T04:24:35;28.50;30.20
26579;DHT22;14227;47.674;19.320;2022-07-23T04:27:00;28.50;30.50
26579;DHT22;14227;47.674;19.320;2022-07-23T04:29:26;28.40;30.70
26579;DHT22;14227;47.674;19.320;2022-07-23T04:31:52;28.40;30.90
26579;DHT22;14227;47.674;19.320;2022-07-23T04:34:18;28.30;30.90
26579;DHT22;14227;47.674;19.320;2022-07-23T04:36:43;28.30;31.30
26579;DHT22;14227;47.674;19.320;2022-07-23T04:39:09;28.20;31.30
26579;DHT22;14227;47.674;19.320;2022-07-23T04:41:35;28.20;31.30
26579;DHT22;14227;47.674;19.320;2022-07-23T04:44:01;28.20;31.50
26579;DHT22;14227;47.674;19.320;2022-07-23T04:46:27;28.20;31.50
26579;DHT22;14227;47.674;19.320;2022-07-23T04:48:53;28.20;31.40
26579;DHT22;14227;47.674;19.320;2022-07-23T04:51:19;28.20;31.50
26579;DHT22;14227;47.674;19.320;2022-07-23T04:53:45;28.20;31.50
26579;DHT22;14227;47.674;19.320;2022-07-23T04:56:13;28.20;31.90
26579;DHT22;14227;47.674;19.320;2022-07-23T04:58:39;28.20;32.80
26579;DHT22;14227;47.674;19.320;2022-07-23T05:01:04;28.20;33.70
26579;DHT22;14227;47.674;19.320;2022-07-23T05:03:30;28.20;33.80
26579;DHT22;14227;47.674;19.320;2022-07-23T05:05:56;28.20;33.20
26579;DHT22;14227;47.674;19.320;2022-07-23T05:08:21;28.20;32.90
26579;DHT22;14227;47.674;19.320;2022-07-23T05:10:47;28.30;33.30
26579;DHT22;14227;47.674;19.320;2022-07-23T05:13:15;28.30;34.20
26579;DHT22;14227;47.674;19.320;2022-07-23T05:15:42;28.30;34.20
26579;DHT22;14227;47.674;19.320;2022-07-23T05:18:07;28.30;34.20
26579;DHT22;14227;47.674;19.320;2022-07-23T05:20:33;28.30;34.80
26579;DHT22;14227;47.674;19.320;2022-07-23T05:22:59;28.30;35.50
26579;DHT22;14227;47.674;19.320;2022-07-23T05:25:24;28.40;35.40
26579;DHT22;14227;47.674;19.320;2022-07-23T05:27:50;28.30;35.70
26579;DHT22;14227;47.674;19.320;2022-07-23T05:30:16;28.30;34.20
26579;DHT22;14227;47.674;19.320;2022-07-23T05:32:42;28.40;34.90
26579;DHT22;14227;47.674;19.320;2022-07-23T05:35:08;28.40;35.60
26579;DHT22;14227;47.674;19.320;2022-07-23T05:37:33;28.40;34.30
26579;DHT22;14227;47.674;19.320;2022-07-23T05:42:42;28.50;34.00
26579;DHT22;14227;47.674;19.320;2022-07-23T05:45:21;28.60;33.70
26579;DHT22;14227;47.674;19.320;2022-07-23T05:48:08;28.60;32.30
26579;DHT22;14227;47.674;19.320;2022-07-23T05:50:34;28.60;31.90
26579;DHT22;14227;47.674;19.320;2022-07-23T05:53:02;28.60;31.40
26579;DHT22;14227;47.674;19.320;2022-07-23T05:55:39;28.70;31.30
26579;DHT22;14227;47.674;19.320;2022-07-23T05:58:09;28.70;31.70
26579;DHT22;14227;47.674;19.320;2022-07-23T06:01:03;28.80;32.80
26579;DHT22;14227;47.674;19.320;2022-07-23T06:03:47;28.80;32.30
26579;DHT22;14227;47.674;19.320;2022-07-23T06:06:44;28.80;32.10
26579;DHT22;14227;47.674;19.320;2022-07-23T06:09:16;28.80;31.30
26579;DHT22;14227;47.674;19.320;2022-07-23T06:11:49;28.80;31.20
26579;DHT22;14227;47.674;19.320;2022-07-23T06:14:27;28.90;30.90
26579;DHT22;14227;47.674;19.320;2022-07-23T06:17:02;29.00;30.50
26579;DHT22;14227;47.674;19.320;2022-07-23T06:19:41;29.00;30.10
26579;DHT22;14227;47.674;19.320;2022-07-23T06:22:07;29.10;30.90
26579;DHT22;14227;47.674;19.320;2022-07-23T06:24:33;29.10;29.70
26579;DHT22;14227;47.674;19.320;2022-07-23T06:27:00;29.10;29.20
26579;DHT22;14227;47.674;19.320;2022-07-23T06:29:26;29.20;29.30
26579;DHT22;14227;47.674;19.320;2022-07-23T06:31:53;29.20;29.20
26579;DHT22;14227;47.674;19.320;2022-07-23T06:34:19;29.30;29.30
26579;DHT22;14227;47.674;19.320;2022-07-23T06:36:47;29.40;29.40
26579;DHT22;14227;47.674;19.320;2022-07-23T06:39:13;29.40;29.40
26579;DHT22;14227;47.674;19.320;2022-07-23T06:41:39;29.50;29.40
26579;DHT22;14227;47.674;19.320;2022-07-23T06:44:05;29.50;29.30
26579;DHT22;14227;47.674;19.320;2022-07-23T06:46:31;29.60;29.10
26579;DHT22;14227;47.674;19.320;2022-07-23T06:48:59;29.60;28.90
26579;DHT22;14227;47.674;19.320;2022-07-23T06:51:25;29.70;29.00
26579;DHT22;14227;47.674;19.320;2022-07-23T06:53:51;29.70;28.70
26579;DHT22;14227;47.674;19.320;2022-07-23T06:56:19;29.80;28.60
26579;DHT22;14227;47.674;19.320;2022-07-23T06:58:45;29.90;28.50
26579;DHT22;14227;47.674;19.320;2022-07-23T07:01:11;29.90;28.40
26579;DHT22;14227;47.674;19.320;2022-07-23T07:03:37;29.90;28.30
26579;DHT22;14227;47.674;19.320;2022-07-23T07:08:55;30.00;28.30
26579;DHT22;14227;47.674;19.320;2022-07-23T07:11:21;30.10;28.20
26579;DHT22;14227;47.674;19.320;2022-07-23T07:13:49;30.10;28.40
26579;DHT22;14227;47.674;19.320;2022-07-23T07:16:22;30.20;28.10
26579;DHT22;14227;47.674;19.320;2022-07-23T07:18:51;30.30;28.10
26579;DHT22;14227;47.674;19.320;2022-07-23T07:21:16;30.30;28.10
26579;DHT22;14227;47.674;19.320;2022-07-23T07:23:45;30.40;28.10
26579;DHT22;14227;47.674;19.320;2022-07-23T07:26:13;30.50;28.30
26579;DHT22;14227;47.674;19.320;2022-07-23T07:28:39;30.60;27.50
26579;DHT22;14227;47.674;19.320;2022-07-23T07:31:08;30.70;27.50
26579;DHT22;14227;47.674;19.320;2022-07-23T07:33:33;30.70;27.50
26579;DHT22;14227;47.674;19.320;2022-07-23T07:35:59;30.80;28.00
26579;DHT22;14227;47.674;19.320;2022-07-23T07:38:27;30.90;28.10
26579;DHT22;14227;47.674;19.320;2022-07-23T07:41:03;31.00;27.30
26579;DHT22;14227;47.674;19.320;2022-07-23T07:44:13;31.00;26.80
26579;DHT22;14227;47.674;19.320;2022-07-23T07:46:39;31.10;26.90
26579;DHT22;14227;47.674;19.320;2022-07-23T07:49:16;31.20;26.80
26579;DHT22;14227;47.674;19.320;2022-07-23T07:51:55;31.30;26.80
26579;DHT22;14227;47.674;19.320;2022-07-23T07:54:21;31.40;27.40
26579;DHT22;14227;47.674;19.320;2022-07-23T07:56:46;31.50;27.00
26579;DHT22;14227;47.674;19.320;2022-07-23T07:59:13;31.60;26.90
26579;DHT22;14227;47.674;19.320;2022-07-23T08:01:40;31.70;26.80
26579;DHT22;14227;47.674;19.320;2022-07-23T08:04:06;31.80;26.60
26579;DHT22;14227;47.674;19.320;2022-07-23T08:06:32;31.90;26.20
26579;DHT22;14227;47.674;19.320;2022-07-23T08:08:59;32.10;26.20
26579;DHT22;14227;47.674;19.320;2022-07-23T08:14:25;32.30;26.40
26579;DHT22;14227;47.674;19.320;2022-07-23T08:17:33;32.30;26.40
26579;DHT22;14227;47.674;19.320;2022-07-23T08:20:14;32.40;26.40
26579;DHT22;14227;47.674;19.320;2022-07-23T08:26:54;32.50;26.20
26579;DHT22;14227;47.674;19.320;2022-07-23T08:29:23;32.60;25.80
26579;DHT22;14227;47.674;19.320;2022-07-23T08:32:27;32.80;25.00
26579;DHT22;14227;47.674;19.320;2022-07-23T08:35:29;33.00;24.90
26579;DHT22;14227;47.674;19.320;2022-07-23T08:48:28;33.50;23.40
26579;DHT22;14227;47.674;19.320;2022-07-23T08:50:58;33.60;24.10
26579;DHT22;14227;47.674;19.320;2022-07-23T08:53:28;33.70;23.70
26579;DHT22;14227;47.674;19.320;2022-07-23T08:56:04;33.80;23.20
26579;DHT22;14227;47.674;19.320;2022-07-23T08:58:42;33.90;24.60
26579;DHT22;14227;47.674;19.320;2022-07-23T09:01:33;34.00;23.50
26579;DHT22;14227;47.674;19.320;2022-07-23T09:04:06;34.10;24.30
26579;DHT22;14227;47.674;19.320;2022-07-23T09:06:49;34.10;23.90
26579;DHT22;14227;47.674;19.320;2022-07-23T09:09:20;34.20;22.70
26579;DHT22;14227;47.674;19.320;2022-07-23T09:12:22;34.30;24.10
26579;DHT22;14227;47.674;19.320;2022-07-23T09:14:51;34.40;23.10
26579;DHT22;14227;47.674;19.320;2022-07-23T09:17:18;34.40;22.80
26579;DHT22;14227;47.674;19.320;2022-07-23T09:19:44;34.50;23.40
26579;DHT22;14227;47.674;19.320;2022-07-23T09:22:36;34.60;22.10
26579;DHT22;14227;47.674;19.320;2022-07-23T09:25:18;34.70;23.00
26579;DHT22;14227;47.674;19.320;2022-07-23T09:30:25;34.80;20.90
26579;DHT22;14227;47.674;19.320;2022-07-23T09:33:13;35.00;22.70
26579;DHT22;14227;47.674;19.320;2022-07-23T09:35:45;35.10;21.90
26579;DHT22;14227;47.674;19.320;2022-07-23T09:38:11;35.10;21.40
26579;DHT22;14227;47.674;19.320;2022-07-23T09:40:37;35.20;20.90
26579;DHT22;14227;47.674;19.320;2022-07-23T09:43:03;35.20;21.60
26579;DHT22;14227;47.674;19.320;2022-07-23T09:45:28;35.30;20.90
26579;DHT22;14227;47.674;19.320;2022-07-23T09:48:30;35.40;21.40
26579;DHT22;14227;47.674;19.320;2022-07-23T09:51:02;35.50;20.80
26579;DHT22;14227;47.674;19.320;2022-07-23T09:53:29;35.60;21.00
26579;DHT22;14227;47.674;19.320;2022-07-23T09:55:57;35.70;21.10
26579;DHT22;14227;47.674;19.320;2022-07-23T09:58:25;35.80;20.80
26579;DHT22;14227;47.674;19.320;2022-07-23T10:00:52;35.90;20.70
26579;DHT22;14227;47.674;19.320;2022-07-23T10:03:19;35.90;20.00
26579;DHT22;14227;47.674;19.320;2022-07-23T10:05:46;35.90;20.00
26579;DHT22;14227;47.674;19.320;2022-07-23T10:08:12;36.00;20.30
26579;DHT22;14227;47.674;19.320;2022-07-23T10:10:40;36.10;20.60
26579;DHT22;14227;47.674;19.320;2022-07-23T10:13:06;36.10;21.00
26579;DHT22;14227;47.674;19.320;2022-07-23T10:15:44;36.20;20.50
26579;DHT22;14227;47.674;19.320;2022-07-23T10:18:10;36.30;20.20
26579;DHT22;14227;47.674;19.320;2022-07-23T10:20:38;36.30;20.20
26579;DHT22;14227;47.674;19.320;2022-07-23T10:23:27;36.40;19.90
26579;DHT22;14227;47.674;19.320;2022-07-23T10:26:40;36.40;19.30
26579;DHT22;14227;47.674;19.320;2022-07-23T10:31:56;36.60;21.30
26579;DHT22;14227;47.674;19.320;2022-07-23T10:37:21;36.70;21.70
26579;DHT22;14227;47.674;19.320;2022-07-23T10:40:16;36.80;21.90
26579;DHT22;14227;47.674;19.320;2022-07-23T10:42:43;36.90;20.70
26579;DHT22;14227;47.674;19.320;2022-07-23T10:45:33;36.90;20.60
26579;DHT22;14227;47.674;19.320;2022-07-23T10:51:11;37.00;20.50
26579;DHT22;14227;47.674;19.320;2022-07-23T11:04:19;37.30;19.60
26579;DHT22;14227;47.674;19.320;2022-07-23T11:38:43;38.00;19.00
26579;DHT22;14227;47.674;19.320;2022-07-23T11:41:09;38.10;19.20
26579;DHT22;14227;47.674;19.320;2022-07-23T11:43:36;38.10;18.60
26579;DHT22;14227;47.674;19.320;2022-07-23T11:46:03;38.10;18.10
26579;DHT22;14227;47.674;19.320;2022-07-23T11:48:30;38.20;18.50
26579;DHT22;14227;47.674;19.320;2022-07-23T11:50:57;38.20;19.20
26579;DHT22;14227;47.674;19.320;2022-07-23T11:53:27;38.30;18.60
26579;DHT22;14227;47.674;19.320;2022-07-23T11:55:53;38.30;17.80
26579;DHT22;14227;47.674;19.320;2022-07-23T11:58:20;38.40;17.30
26579;DHT22;14227;47.674;19.320;2022-07-23T12:00:46;38.40;17.50
26579;DHT22;14227;47.674;19.320;2022-07-23T12:03:12;38.40;17.00
26579;DHT22;14227;47.674;19.320;2022-07-23T12:05:38;38.50;16.80
26579;DHT22;14227;47.674;19.320;2022-07-23T12:08:08;38.50;16.80
26579;DHT22;14227;47.674;19.320;2022-07-23T12:10:44;38.50;17.20
26579;DHT22;14227;47.674;19.320;2022-07-23T12:13:18;38.60;17.60
26579;DHT22;14227;47.674;19.320;2022-07-23T12:15:48;38.60;18.30
26579;DHT22;14227;47.674;19.320;2022-07-23T12:18:20;38.60;17.30
26579;DHT22;14227;47.674;19.320;2022-07-23T12:20:49;38.60;18.40
26579;DHT22;14227;47.674;19.320;2022-07-23T12:23:16;38.60;18.60
26579;DHT22;14227;47.674;19.320;2022-07-23T12:25:44;38.60;18.30
26579;DHT22;14227;47.674;19.320;2022-07-23T12:28:12;38.60;19.60
26579;DHT22;14227;47.674;19.320;2022-07-23T12:30:55;38.70;18.00
26579;DHT22;14227;47.674;19.320;2022-07-23T12:33:33;38.70;18.50
26579;DHT22;14227;47.674;19.320;2022-07-23T12:36:04;38.70;19.00
26579;DHT22;14227;47.674;19.320;2022-07-23T12:38:38;38.70;17.40
26579;DHT22;14227;47.674;19.320;2022-07-23T12:41:04;38.70;18.60
26579;DHT22;14227;47.674;19.320;2022-07-23T12:43:33;38.80;18.80
26579;DHT22;14227;47.674;19.320;2022-07-23T12:46:07;38.80;17.60
26579;DHT22;14227;47.674;19.320;2022-07-23T12:48:38;38.80;17.00
26579;DHT22;14227;47.674;19.320;2022-07-23T12:51:08;38.80;17.40
26579;DHT22;14227;47.674;19.320;2022-07-23T12:53:39;38.80;18.80
26579;DHT22;14227;47.674;19.320;2022-07-23T13:01:56;38.90;17.70
26579;DHT22;14227;47.674;19.320;2022-07-23T13:04:24;38.90;16.80
26579;DHT22;14227;47.674;19.320;2022-07-23T13:06:54;38.90;16.90
26579;DHT22;14227;47.674;19.320;2022-07-23T13:09:23;38.90;16.60
26579;DHT22;14227;47.674;19.320;2022-07-23T13:12:06;39.00;17.70
26579;DHT22;14227;47.674;19.320;2022-07-23T13:14:33;39.00;17.20
26579;DHT22;14227;47.674;19.320;2022-07-23T13:16:59;39.00;17.80
26579;DHT22;14227;47.674;19.320;2022-07-23T13:19:25;39.00;17.40
26579;DHT22;14227;47.674;19.320;2022-07-23T13:21:51;39.20;17.00
26579;DHT22;14227;47.674;19.320;2022-07-23T13:24:17;39.10;16.90
26579;DHT22;14227;47.674;19.320;2022-07-23T13:26:43;39.20;17.90
26579;DHT22;14227;47.674;19.320;2022-07-23T13:29:09;39.20;17.00
26579;DHT22;14227;47.674;19.320;2022-07-23T13:31:47;39.20;17.20
26579;DHT22;14227;47.674;19.320;2022-07-23T13:34:17;39.20;16.90
26579;DHT22;14227;47.674;19.320;2022-07-23T13:36:43;39.30;17.70
26579;DHT22;14227;47.674;19.320;2022-07-23T13:39:08;39.20;16.30
26579;DHT22;14227;47.674;19.320;2022-07-23T13:41:34;39.30;15.80
26579;DHT22;14227;47.674;19.320;2022-07-23T13:44:01;39.30;15.80
26579;DHT22;14227;47.674;19.320;2022-07-23T13:46:29;39.30;16.80
26579;DHT22;14227;47.674;19.320;2022-07-23T13:48:54;39.40;17.20
26579;DHT22;14227;47.674;19.320;2022-07-23T13:51:20;39.50;15.90
26579;DHT22;14227;47.674;19.320;2022-07-23T13:53:47;39.40;17.30
26579;DHT22;14227;47.674;19.320;2022-07-23T13:56:12;39.40;16.30
26579;DHT22;14227;47.674;19.320;2022-07-23T13:58:38;39.50;16.60
26579;DHT22;14227;47.674;19.320;2022-07-23T14:01:05;39.50;15.90
26579;DHT22;14227;47.674;19.320;2022-07-23T14:03:31;39.50;15.90
26579;DHT22;14227;47.674;19.320;2022-07-23T14:05:57;39.50;15.90
26579;DHT22;14227;47.674;19.320;2022-07-23T14:08:24;39.50;15.90
26579;DHT22;14227;47.674;19.320;2022-07-23T14:10:50;39.60;18.10
26579;DHT22;14227;47.674;19.320;2022-07-23T14:13:16;39.60;16.70
26579;DHT22;14227;47.674;19.320;2022-07-23T14:15:41;39.60;15.60
26579;DHT22;14227;47.674;19.320;2022-07-23T14:18:07;39.60;15.50
26579;DHT22;14227;47.674;19.320;2022-07-23T14:20:33;39.60;15.90
26579;DHT22;14227;47.674;19.320;2022-07-23T14:22:59;39.60;15.20
26579;DHT22;14227;47.674;19.320;2022-07-23T14:25:26;39.70;15.00
26579;DHT22;14227;47.674;19.320;2022-07-23T14:27:55;39.70;14.80
26579;DHT22;14227;47.674;19.320;2022-07-23T14:30:21;39.80;16.10
26579;DHT22;14227;47.674;19.320;2022-07-23T14:32:56;39.80;15.60
26579;DHT22;14227;47.674;19.320;2022-07-23T14:35:25;39.70;15.00
26579;DHT22;14227;47.674;19.320;2022-07-23T14:37:51;39.70;15.10
26579;DHT22;14227;47.674;19.320;2022-07-23T14:40:17;39.70;14.20
26579;DHT22;14227;47.674;19.320;2022-07-23T14:42:42;39.70;14.30
26579;DHT22;14227;47.674;19.320;2022-07-23T14:45:08;39.80;16.10
26579;DHT22;14227;47.674;19.320;2022-07-23T14:47:34;39.80;14.60
26579;DHT22;14227;47.674;19.320;2022-07-23T14:50:00;39.80;15.10
26579;DHT22;14227;47.674;19.320;2022-07-23T14:52:27;39.80;14.80
26579;DHT22;14227;47.674;19.320;2022-07-23T14:54:53;39.80;14.20
26579;DHT22;14227;47.674;19.320;2022-07-23T14:57:18;39.90;13.70
26579;DHT22;14227;47.674;19.320;2022-07-23T14:59:44;39.80;14.10
26579;DHT22;14227;47.674;19.320;2022-07-23T15:02:10;39.80;14.00
26579;DHT22;14227;47.674;19.320;2022-07-23T15:04:36;39.90;14.10
26579;DHT22;14227;47.674;19.320;2022-07-23T15:07:02;39.80;13.90
26579;DHT22;14227;47.674;19.320;2022-07-23T15:09:30;39.80;14.20
26579;DHT22;14227;47.674;19.320;2022-07-23T15:11:56;39.80;14.30
26579;DHT22;14227;47.674;19.320;2022-07-23T15:14:22;39.80;15.20
26579;DHT22;14227;47.674;19.320;2022-07-23T15:16:48;39.80;14.30
26579;DHT22;14227;47.674;19.320;2022-07-23T15:19:13;39.80;14.50
26579;DHT22;14227;47.674;19.320;2022-07-23T15:21:45;39.80;14.20
26579;DHT22;14227;47.674;19.320;2022-07-23T15:24:11;39.70;14.00
26579;DHT22;14227;47.674;19.320;2022-07-23T15:26:37;39.70;14.00
26579;DHT22;14227;47.674;19.320;2022-07-23T15:29:03;39.60;14.00
26579;DHT22;14227;47.674;19.320;2022-07-23T15:31:31;39.60;13.90
26579;DHT22;14227;47.674;19.320;2022-07-23T15:33:57;39.60;13.80
26579;DHT22;14227;47.674;19.320;2022-07-23T15:36:23;39.50;13.80
26579;DHT22;14227;47.674;19.320;2022-07-23T15:38:49;39.50;13.90
26579;DHT22;14227;47.674;19.320;2022-07-23T15:41:14;39.50;13.80
26579;DHT22;14227;47.674;19.320;2022-07-23T15:43:40;39.40;13.70
26579;DHT22;14227;47.674;19.320;2022-07-23T15:46:06;39.30;13.70
26579;DHT22;14227;47.674;19.320;2022-07-23T15:48:35;39.30;13.90
26579;DHT22;14227;47.674;19.320;2022-07-23T15:51:01;39.30;14.70
26579;DHT22;14227;47.674;19.320;2022-07-23T15:53:26;39.20;13.90
26579;DHT22;14227;47.674;19.320;2022-07-23T15:55:52;39.20;14.20
26579;DHT22;14227;47.674;19.320;2022-07-23T15:58:18;39.10;14.80
26579;DHT22;14227;47.674;19.320;2022-07-23T16:00:43;39.00;14.80
26579;DHT22;14227;47.674;19.320;2022-07-23T16:03:09;39.00;15.00
26579;DHT22;14227;47.674;19.320;2022-07-23T16:05:35;38.90;15.30
26579;DHT22;14227;47.674;19.320;2022-07-23T16:08:04;38.80;15.50
26579;DHT22;14227;47.674;19.320;2022-07-23T16:10:30;38.60;15.40
26579;DHT22;14227;47.674;19.320;2022-07-23T16:12:56;38.60;16.10
26579;DHT22;14227;47.674;19.320;2022-07-23T16:15:22;38.40;16.90
26579;DHT22;14227;47.674;19.320;2022-07-23T16:17:47;38.20;17.80
26579;DHT22;14227;47.674;19.320;2022-07-23T16:20:13;37.90;18.00
26579;DHT22;14227;47.674;19.320;2022-07-23T16:22:39;37.70;18.40
26579;DHT22;14227;47.674;19.320;2022-07-23T16:25:06;37.50;19.00
26579;DHT22;14227;47.674;19.320;2022-07-23T16:27:33;37.20;20.50
26579;DHT22;14227;47.674;19.320;2022-07-23T16:29:59;37.00;22.80
26579;DHT22;14227;47.674;19.320;2022-07-23T16:32:25;36.80;23.70
26579;DHT22;14227;47.674;19.320;2022-07-23T16:34:51;36.50;24.00
26579;DHT22;14227;47.674;19.320;2022-07-23T16:37:17;36.20;24.30
26579;DHT22;14227;47.674;19.320;2022-07-23T16:40:12;36.00;24.30
26579;DHT22;14227;47.674;19.320;2022-07-23T16:42:55;35.70;24.60
26579;DHT22;14227;47.674;19.320;2022-07-23T16:46:52;35.50;25.50
26579;DHT22;14227;47.674;19.320;2022-07-23T16:49:08;35.30;26.00